Weather at Allegheny County Airport

Public forecast

Using degrees Fahrenheit for public forecast. Weather courtesy of forecast.io.

Current aviation weather report (METAR) for Allegheny County Airport

Retrieved 2020/09/30 09:13 UTC (36 minutes ago):

KAGC 300913Z 23006KT 8SM SCT011 11/09 A2972 RMK AO2 T01060094

Aviation forecast (TAF) for Allegheny County Airport

Retrieved 2020/09/30 06:22 UTC (3 hours ago):

TAF KAGC 300520Z 3006/0106 23005KT P6SM SCT020 BKN035 FM301500 23015G25KT P6SM BKN035 FM010000 23010KT P6SM BKN060